Terminal Aerodrome Forecast
Issued by NWS

Home | Current Version | Previous Version | Text Only | Print | Product List | Glossary On
Versions: 1 2 3 4 5 6 7 8 9 10 11 12 13 14
269
FTUS45 KABQ 231134
TAFSAF
TAF
KSAF 231134Z 2312/2412 17010KT P6SM SCT025 SCT090
      TEMPO 2312/2315 BKN025
     FM231500 16010KT P6SM SCT050 SCT090
     FM231900 19010KT P6SM FEW090
     FM232100 26012G20KT P6SM SKC
     FM240200 13008KT P6SM SKC=

USA.gov is the U.S. government's official web portal to all federal, state and local government web resources and services.